Time;durP1;ratioP1;P1;durP2;ratioP2;P2;SDS_P1;SDS_P2;PMS_P1;PMS_P2;Temp;Humidity;BMP_temperature;BMP_pressure;BME280_temperature;BME280_humidity;BME280_pressure;Samples;Min_cycle;Max_cycle;Signal;HPM_P1;HPM_P2
2021/07/18 00:01:53;;;;;;;11.75;6.68;;;17.60;99.90;;;;;;5042978;28;20045;-79
2021/07/18 00:04:20;;;;;;;7.65;5.80;;;17.60;99.90;;;;;;5024822;28;20044;-80
2021/07/18 00:06:46;;;;;;;9.90;5.55;;;17.50;99.90;;;;;;5026090;28;20045;-80
2021/07/18 00:09:12;;;;;;;8.63;5.28;;;17.50;99.90;;;;;;5026738;28;20108;-79
2021/07/18 00:11:39;;;;;;;7.60;6.20;;;17.50;99.90;;;;;;5025451;28;20063;-79
2021/07/18 00:14:06;;;;;;;5.75;5.07;;;17.40;99.90;;;;;;5006157;28;20041;-80
2021/07/18 00:16:33;;;;;;;7.13;5.50;;;17.40;99.90;;;;;;5041340;28;20033;-79
2021/07/18 00:18:59;;;;;;;6.65;4.13;;;17.40;99.90;;;;;;5042951;28;20029;-81
2021/07/18 00:21:26;;;;;;;6.32;4.32;;;17.40;99.90;;;;;;5008268;28;20044;-81
2021/07/18 00:23:53;;;;;;;7.95;2.95;;;17.40;99.90;;;;;;5023209;28;20508;-80
2021/07/18 00:26:20;;;;;;;8.00;4.78;;;17.40;99.90;;;;;;5044557;28;20506;-81
2021/07/18 00:28:46;;;;;;;13.80;4.15;;;17.40;99.90;;;;;;5043941;28;20495;-82
2021/07/18 00:31:13;;;;;;;5.30;3.63;;;17.40;99.90;;;;;;5007216;28;20038;-82
2021/07/18 00:33:39;;;;;;;5.78;3.78;;;17.40;99.90;;;;;;5041036;28;20503;-82
2021/07/18 00:36:06;;;;;;;6.05;3.90;;;17.40;99.90;;;;;;5026133;28;20048;-79
2021/07/18 00:38:32;;;;;;;7.43;2.95;;;17.40;99.90;;;;;;5019696;28;20025;-78
2021/07/18 00:40:59;;;;;;;5.57;3.55;;;17.30;99.90;;;;;;5023737;28;20560;-78
2021/07/18 00:43:25;;;;;;;5.65;3.00;;;17.40;99.90;;;;;;5002860;28;20172;-79
2021/07/18 00:45:58;;;;;;;12.85;2.85;;;17.40;99.90;;;;;;5042224;28;20037;-78
2021/07/18 00:48:30;;;;;;;5.30;3.33;;;17.40;99.90;;;;;;5023769;28;20045;-77
2021/07/18 00:50:57;;;;;;;9.82;3.72;;;17.40;99.90;;;;;;5021558;28;20508;-76
2021/07/18 00:53:31;;;;;;;10.15;3.33;;;17.40;99.90;;;;;;5039250;28;20044;-76
2021/07/18 00:55:58;;;;;;;7.40;3.13;;;17.40;99.90;;;;;;5041947;28;20052;-76
2021/07/18 00:58:29;;;;;;;8.00;3.42;;;17.40;99.90;;;;;;5042142;28;20407;-76
2021/07/18 01:01:00;;;;;;;11.07;3.40;;;17.40;99.90;;;;;;5041571;28;20507;-77
2021/07/18 01:03:28;;;;;;;18.65;3.00;;;17.50;99.90;;;;;;5039236;28;20049;-77
2021/07/18 01:05:55;;;;;;;6.88;2.95;;;17.50;99.90;;;;;;5042908;28;20045;-81
2021/07/18 01:08:22;;;;;;;6.78;1.95;;;17.50;99.90;;;;;;5044119;28;20048;-79
2021/07/18 01:10:48;;;;;;;5.70;2.65;;;17.50;99.90;;;;;;5027731;28;20052;-81
2021/07/18 01:13:15;;;;;;;4.13;2.00;;;17.50;99.90;;;;;;5026948;28;20057;-78
2021/07/18 01:15:42;;;;;;;6.85;2.60;;;17.50;99.90;;;;;;5029985;28;20033;-77
2021/07/18 01:18:10;;;;;;;9.82;1.63;;;17.50;99.90;;;;;;5046485;28;20041;-78
2021/07/18 01:20:39;;;;;;;9.05;1.83;;;17.50;99.90;;;;;;5028153;28;20052;-78
2021/07/18 01:23:05;;;;;;;9.93;1.48;;;17.50;99.90;;;;;;5043765;28;20056;-78
2021/07/18 01:25:36;;;;;;;4.18;1.95;;;17.50;99.90;;;;;;5047055;28;20064;-77
2021/07/18 01:28:10;;;;;;;3.45;1.50;;;17.50;99.90;;;;;;5045083;28;20044;-79
2021/07/18 01:30:37;;;;;;;8.73;1.55;;;17.40;99.90;;;;;;5026036;28;20033;-78
2021/07/18 01:33:04;;;;;;;2.90;1.92;;;17.50;99.90;;;;;;5027481;28;20044;-77
2021/07/18 01:35:31;;;;;;;5.32;2.80;;;17.50;99.90;;;;;;5027109;28;20033;-77
2021/07/18 01:37:58;;;;;;;8.77;2.53;;;17.40;99.90;;;;;;5046413;28;20052;-78
2021/07/18 01:40:25;;;;;;;13.02;2.83;;;17.50;99.90;;;;;;5045004;28;20021;-79
2021/07/18 01:42:55;;;;;;;4.05;2.50;;;17.40;99.90;;;;;;5044363;28;20036;-79
2021/07/18 01:45:23;;;;;;;5.53;2.92;;;17.40;99.90;;;;;;5021802;28;20055;-79
2021/07/18 01:47:49;;;;;;;5.05;2.60;;;17.40;99.90;;;;;;5030498;28;20049;-78
2021/07/18 01:50:17;;;;;;;6.68;1.55;;;17.40;99.90;;;;;;5029149;28;20040;-78
2021/07/18 01:52:44;;;;;;;4.57;1.85;;;17.40;99.90;;;;;;5026811;28;20041;-77
2021/07/18 01:55:13;;;;;;;2.50;1.83;;;17.40;99.90;;;;;;5045354;28;20040;-77
2021/07/18 01:57:40;;;;;;;6.53;1.70;;;17.40;99.90;;;;;;5043561;28;20484;-80
2021/07/18 02:00:08;;;;;;;4.13;1.95;;;17.30;99.90;;;;;;5031078;28;20032;-78
2021/07/18 02:02:46;;;;;;;;;;;17.40;99.90;;;;;;5046435;28;20571;-77
2021/07/18 02:05:13;;;;;;;4.82;2.30;;;17.40;99.90;;;;;;5044906;28;19916;-77
2021/07/18 02:07:40;;;;;;;4.20;2.55;;;17.30;99.90;;;;;;5028201;28;20052;-77
2021/07/18 02:10:08;;;;;;;5.35;1.88;;;17.30;99.90;;;;;;5041875;28;20041;-77
2021/07/18 02:12:36;;;;;;;10.82;2.55;;;17.40;99.90;;;;;;5040490;28;20033;-78
2021/07/18 02:15:06;;;;;;;8.45;2.25;;;17.30;99.90;;;;;;5044761;28;20492;-77
2021/07/18 02:17:33;;;;;;;6.43;1.90;;;17.30;99.90;;;;;;5028197;28;20037;-77
2021/07/18 02:19:59;;;;;;;16.67;2.08;;;17.30;99.90;;;;;;5045366;28;20040;-77
2021/07/18 02:22:40;;;;;;;3.25;1.67;;;17.30;99.90;;;;;;5041236;28;20905;-77
2021/07/18 02:25:07;;;;;;;2.35;2.15;;;17.30;99.90;;;;;;5025520;28;20143;-77
2021/07/18 02:27:34;;;;;;;7.65;1.80;;;17.30;99.90;;;;;;5044722;28;20036;-77
2021/07/18 02:30:00;;;;;;;5.55;1.30;;;17.30;99.90;;;;;;5045234;28;20048;-77
2021/07/18 02:32:27;;;;;;;2.78;1.52;;;17.30;99.90;;;;;;5043190;28;20047;-77
2021/07/18 02:34:53;;;;;;;1.48;1.20;;;17.40;99.90;;;;;;5043599;28;20041;-77
2021/07/18 02:37:20;;;;;;;5.68;1.38;;;17.40;99.90;;;;;;5044339;28;20048;-77
2021/07/18 02:39:46;;;;;;;8.02;2.00;;;17.40;99.90;;;;;;5025400;28;20052;-78
2021/07/18 02:42:13;;;;;;;4.80;1.92;;;17.40;99.90;;;;;;5043317;28;20044;-78
2021/07/18 02:44:40;;;;;;;2.20;1.70;;;17.40;99.90;;;;;;5042243;28;20079;-77
2021/07/18 02:47:06;;;;;;;5.45;1.73;;;17.50;99.90;;;;;;5027185;28;20053;-77
2021/07/18 02:49:32;;;;;;;10.07;2.40;;;17.50;99.90;;;;;;5044722;28;20057;-77
2021/07/18 02:52:00;;;;;;;29.60;2.33;;;17.50;99.90;;;;;;5026526;28;20053;-77
2021/07/18 02:54:26;;;;;;;10.95;2.20;;;17.50;99.90;;;;;;5043359;28;20427;-77
2021/07/18 02:56:53;;;;;;;5.75;1.50;;;17.50;99.90;;;;;;5043612;28;20112;-77
2021/07/18 02:59:19;;;;;;;7.68;1.65;;;17.50;99.90;;;;;;5026510;28;20041;-77
2021/07/18 03:01:46;;;;;;;14.05;3.00;;;17.60;99.90;;;;;;5042510;28;20041;-77
2021/07/18 03:04:12;;;;;;;11.77;2.47;;;17.60;99.90;;;;;;5042949;28;20124;-77
2021/07/18 03:06:38;;;;;;;5.47;2.65;;;17.60;99.90;;;;;;5044638;28;20037;-77
2021/07/18 03:09:05;;;;;;;2.90;2.03;;;17.60;99.90;;;;;;5046000;28;20052;-77
2021/07/18 03:11:31;;;;;;;4.30;2.15;;;17.70;99.90;;;;;;5044515;28;20025;-77
2021/07/18 03:13:58;;;;;;;8.57;2.40;;;17.70;99.90;;;;;;5042841;28;20033;-77
2021/07/18 03:16:25;;;;;;;5.45;2.42;;;17.70;99.90;;;;;;5043707;28;20044;-78
2021/07/18 03:18:51;;;;;;;2.78;2.45;;;17.70;99.90;;;;;;5043641;28;20041;-77
2021/07/18 03:21:17;;;;;;;9.50;3.13;;;17.70;99.90;;;;;;5027734;28;20032;-77
2021/07/18 03:23:44;;;;;;;5.60;2.40;;;17.80;99.90;;;;;;5040960;28;20418;-77
2021/07/18 03:26:10;;;;;;;15.93;3.30;;;17.80;99.90;;;;;;5021148;28;20052;-77
2021/07/18 03:28:37;;;;;;;6.55;2.25;;;17.80;99.90;;;;;;5043523;28;20060;-77
2021/07/18 03:31:03;;;;;;;13.45;3.00;;;17.80;99.90;;;;;;5045080;28;20036;-77
2021/07/18 03:33:29;;;;;;;7.10;3.10;;;17.80;99.90;;;;;;5024765;28;20037;-77
2021/07/18 03:35:56;;;;;;;10.95;3.13;;;17.80;99.90;;;;;;5041832;28;20479;-78
2021/07/18 03:38:22;;;;;;;9.25;4.18;;;17.80;99.90;;;;;;5020891;28;20049;-77
2021/07/18 03:40:49;;;;;;;7.57;4.68;;;17.80;99.90;;;;;;5044867;28;20103;-77
2021/07/18 03:43:16;;;;;;;10.98;4.90;;;17.80;99.90;;;;;;5021053;28;20216;-77
2021/07/18 03:45:43;;;;;;;4.68;4.25;;;17.80;99.90;;;;;;5025170;28;20045;-77
2021/07/18 03:48:09;;;;;;;12.93;5.70;;;17.80;99.90;;;;;;5043715;28;20048;-77
2021/07/18 03:50:35;;;;;;;8.10;6.13;;;17.80;99.90;;;;;;5008965;28;20048;-77
2021/07/18 03:53:02;;;;;;;7.57;6.43;;;17.80;99.90;;;;;;5042870;28;20036;-78
2021/07/18 03:55:28;;;;;;;7.43;5.80;;;17.70;99.90;;;;;;5043121;28;20036;-77
2021/07/18 03:57:55;;;;;;;8.32;6.07;;;17.70;99.90;;;;;;5043445;28;20045;-77
2021/07/18 04:00:21;;;;;;;6.85;5.30;;;17.70;99.90;;;;;;5044643;28;20033;-77
2021/07/18 04:02:48;;;;;;;7.80;4.80;;;17.70;99.90;;;;;;5042152;28;20033;-77
2021/07/18 04:05:14;;;;;;;6.47;5.75;;;17.70;99.90;;;;;;5043313;28;20048;-77
2021/07/18 04:07:41;;;;;;;8.88;5.43;;;17.70;99.90;;;;;;5042919;28;20526;-77
2021/07/18 04:10:08;;;;;;;13.82;6.20;;;17.60;99.90;;;;;;5027142;28;20037;-77
2021/07/18 04:12:34;;;;;;;5.68;4.95;;;17.70;99.90;;;;;;5041269;28;20045;-77
2021/07/18 04:15:01;;;;;;;8.25;6.25;;;17.70;99.90;;;;;;5041696;28;20048;-77
2021/07/18 04:17:27;;;;;;;9.93;6.25;;;17.80;99.90;;;;;;5043100;28;20041;-78
2021/07/18 04:19:54;;;;;;;8.80;6.35;;;17.80;99.90;;;;;;5042859;28;20044;-77
2021/07/18 04:22:20;;;;;;;6.25;5.15;;;17.80;99.90;;;;;;5040935;28;20033;-77
2021/07/18 04:24:47;;;;;;;10.73;5.63;;;17.90;99.90;;;;;;5041703;28;20057;-78
2021/07/18 04:27:13;;;;;;;10.15;6.40;;;17.80;99.90;;;;;;5043362;28;20033;-78
2021/07/18 04:29:40;;;;;;;6.50;5.25;;;17.80;99.90;;;;;;5025146;28;20053;-78
2021/07/18 04:32:07;;;;;;;22.88;7.07;;;17.80;99.90;;;;;;5043245;28;20052;-77
2021/07/18 04:34:33;;;;;;;8.90;5.53;;;17.80;99.90;;;;;;5042849;28;20029;-77
2021/07/18 04:37:00;;;;;;;8.95;5.97;;;17.80;99.90;;;;;;5043551;28;20029;-77
2021/07/18 04:39:27;;;;;;;9.90;5.40;;;17.80;99.90;;;;;;5042495;28;20041;-77
2021/07/18 04:41:54;;;;;;;7.53;5.15;;;17.80;99.90;;;;;;5041085;28;20486;-78
2021/07/18 04:44:20;;;;;;;8.25;6.07;;;17.90;99.90;;;;;;5040062;28;20048;-77
2021/07/18 04:46:46;;;;;;;7.13;5.63;;;17.90;99.90;;;;;;5042480;28;20055;-78
2021/07/18 04:49:13;;;;;;;7.07;5.85;;;17.90;99.90;;;;;;5044021;28;20041;-77
2021/07/18 04:51:39;;;;;;;6.40;5.38;;;17.90;99.90;;;;;;5024957;28;20061;-77
2021/07/18 04:54:06;;;;;;;7.10;5.13;;;17.90;99.90;;;;;;5008503;28;20474;-77
2021/07/18 04:56:32;;;;;;;6.43;5.60;;;17.90;99.90;;;;;;5042908;28;20037;-77
2021/07/18 04:58:59;;;;;;;7.72;6.30;;;17.90;99.90;;;;;;5025675;28;20045;-77
2021/07/18 05:01:25;;;;;;;6.05;5.38;;;17.90;99.90;;;;;;5039176;28;20041;-77
2021/07/18 05:03:52;;;;;;;8.27;6.22;;;17.90;99.90;;;;;;5040958;28;20530;-77
2021/07/18 05:06:18;;;;;;;7.22;6.03;;;18.00;99.90;;;;;;5042092;28;20048;-77
2021/07/18 05:08:45;;;;;;;6.25;5.57;;;18.00;99.90;;;;;;5024440;28;20041;-77
2021/07/18 05:11:11;;;;;;;5.80;4.93;;;18.10;99.90;;;;;;5025519;28;20032;-77
2021/07/18 05:13:38;;;;;;;5.90;5.15;;;18.20;99.90;;;;;;5040118;28;20411;-77
2021/07/18 05:16:05;;;;;;;7.90;5.38;;;18.30;99.90;;;;;;5043741;28;20036;-77
2021/07/18 05:18:32;;;;;;;7.05;5.53;;;18.40;99.90;;;;;;5043355;28;20120;-76
2021/07/18 05:20:58;;;;;;;6.05;4.80;;;18.50;99.90;;;;;;5043251;28;20017;-76
2021/07/18 05:23:26;;;;;;;5.55;4.90;;;18.60;99.90;;;;;;5041153;28;20582;-76
2021/07/18 05:25:53;;;;;;;8.10;5.80;;;18.70;99.90;;;;;;5043539;28;20056;-75
2021/07/18 05:28:19;;;;;;;6.65;5.55;;;18.80;99.90;;;;;;5043523;28;20496;-77
2021/07/18 05:30:46;;;;;;;6.57;4.63;;;18.90;99.90;;;;;;5023984;28;20405;-75
2021/07/18 05:33:13;;;;;;;5.15;4.65;;;19.00;99.90;;;;;;5038259;28;20492;-76
2021/07/18 05:35:39;;;;;;;6.00;5.32;;;19.20;99.90;;;;;;5042573;28;20040;-76
2021/07/18 05:38:06;;;;;;;5.90;5.30;;;19.20;99.90;;;;;;5043014;28;20040;-76
2021/07/18 05:40:33;;;;;;;5.55;4.85;;;19.30;99.90;;;;;;5043025;28;20032;-76
2021/07/18 05:42:59;;;;;;;6.60;5.40;;;19.40;99.90;;;;;;5023329;28;20032;-76
2021/07/18 05:45:26;;;;;;;5.43;4.93;;;19.60;99.90;;;;;;5022566;28;20068;-76
2021/07/18 05:47:52;;;;;;;5.20;4.70;;;19.60;99.90;;;;;;5043442;28;20435;-76
2021/07/18 05:50:19;;;;;;;5.65;5.13;;;19.70;99.90;;;;;;4994724;28;20055;-76
2021/07/18 05:52:45;;;;;;;5.78;4.43;;;19.80;99.90;;;;;;5043690;28;20045;-76
2021/07/18 05:55:13;;;;;;;4.13;3.72;;;19.80;99.90;;;;;;5023724;28;20038;-77
2021/07/18 05:57:40;;;;;;;5.00;3.58;;;19.90;99.90;;;;;;5025099;28;20463;-78
2021/07/18 06:00:12;;;;;;;6.20;4.38;;;20.00;99.90;;;;;;5046141;28;20044;-78
2021/07/18 06:02:40;;;;;;;4.78;4.32;;;20.10;99.90;;;;;;5018990;28;20041;-78
2021/07/18 06:05:08;;;;;;;3.72;3.05;;;20.10;99.90;;;;;;5043905;28;20037;-78
2021/07/18 06:07:36;;;;;;;4.65;4.25;;;20.20;99.90;;;;;;5045692;28;20495;-78
2021/07/18 06:10:05;;;;;;;4.20;3.75;;;20.30;99.90;;;;;;5025959;28;20025;-78
2021/07/18 06:12:32;;;;;;;5.85;4.10;;;20.40;99.90;;;;;;5045620;28;20412;-78
2021/07/18 06:14:59;;;;;;;3.67;3.38;;;20.50;99.90;;;;;;5045635;28;20033;-79
2021/07/18 06:17:25;;;;;;;3.78;3.20;;;20.70;99.90;;;;;;5028957;28;20052;-79
2021/07/18 06:19:51;;;;;;;3.30;2.80;;;21.00;99.90;;;;;;5012027;28;20385;-79
2021/07/18 06:22:19;;;;;;;3.67;2.78;;;21.20;99.90;;;;;;5027810;28;20045;-78
2021/07/18 06:24:45;;;;;;;3.67;3.00;;;21.50;99.90;;;;;;5024805;28;20061;-78
2021/07/18 06:27:12;;;;;;;3.05;2.75;;;21.70;99.90;;;;;;5044405;28;20052;-78
2021/07/18 06:29:39;;;;;;;4.07;2.83;;;21.90;99.90;;;;;;5012536;28;20058;-79
2021/07/18 06:32:06;;;;;;;2.83;2.10;;;22.00;99.90;;;;;;5043937;28;20060;-79
2021/07/18 06:34:32;;;;;;;3.15;2.35;;;22.10;99.90;;;;;;5042404;28;20048;-79
2021/07/18 06:37:00;;;;;;;2.92;1.88;;;22.10;99.90;;;;;;5043800;28;20033;-79
2021/07/18 06:39:26;;;;;;;2.83;1.80;;;22.00;99.90;;;;;;5028727;28;20053;-79
2021/07/18 06:41:53;;;;;;;2.95;2.05;;;22.10;99.90;;;;;;5027381;28;20037;-79
2021/07/18 06:44:20;;;;;;;2.38;2.00;;;22.20;99.90;;;;;;5043677;28;20044;-79
2021/07/18 06:46:47;;;;;;;2.65;1.73;;;22.40;99.90;;;;;;5028380;28;20063;-79
2021/07/18 06:49:13;;;;;;;3.83;1.45;;;22.60;99.90;;;;;;5028126;28;20060;-79
2021/07/18 06:51:39;;;;;;;3.05;1.92;;;22.80;99.90;;;;;;5034212;28;20049;-77
2021/07/18 06:54:06;;;;;;;2.15;1.35;;;23.00;99.90;;;;;;5023021;28;20056;-78
2021/07/18 06:56:32;;;;;;;2.80;1.38;;;23.10;99.90;;;;;;4981366;28;20056;-77
2021/07/18 06:59:00;;;;;;;2.65;1.50;;;23.30;99.90;;;;;;5011999;28;20038;-77
2021/07/18 07:01:27;;;;;;;2.88;1.13;;;23.30;99.90;;;;;;5044645;28;20044;-77
2021/07/18 07:03:53;;;;;;;2.60;1.60;;;23.30;99.90;;;;;;5026711;28;20057;-78
2021/07/18 07:06:20;;;;;;;2.88;1.15;;;23.30;99.90;;;;;;5043111;28;20037;-78
2021/07/18 07:08:46;;;;;;;2.45;1.20;;;23.30;99.90;;;;;;5044051;28;20518;-78
2021/07/18 07:11:14;;;;;;;2.88;1.42;;;23.40;99.90;;;;;;5045327;28;20044;-78
2021/07/18 07:13:40;;;;;;;2.38;1.50;;;23.40;99.90;;;;;;5044022;28;20055;-77
2021/07/18 07:16:07;;;;;;;2.17;1.80;;;23.50;99.90;;;;;;5045646;28;20601;-78
2021/07/18 07:18:33;;;;;;;2.80;1.48;;;23.50;99.90;;;;;;5044382;28;20053;-78
2021/07/18 07:21:00;;;;;;;3.00;1.23;;;23.60;99.90;;;;;;5027304;28;20064;-78
2021/07/18 07:23:26;;;;;;;2.47;1.52;;;23.70;99.90;;;;;;5041807;28;20388;-78
2021/07/18 07:25:52;;;;;;;3.08;1.60;;;23.80;99.90;;;;;;5043817;28;20057;-78
2021/07/18 07:28:19;;;;;;;3.47;1.30;;;23.90;99.90;;;;;;5026510;28;20041;-78
2021/07/18 07:30:45;;;;;;;2.20;1.27;;;24.00;99.90;;;;;;5044751;28;20033;-78
2021/07/18 07:33:12;;;;;;;3.72;1.52;;;24.10;99.90;;;;;;5043145;28;20040;-79
2021/07/18 07:35:39;;;;;;;2.17;1.02;;;24.20;99.90;;;;;;5027243;28;20040;-79
2021/07/18 07:38:07;;;;;;;2.42;1.25;;;24.40;99.90;;;;;;5045693;28;20578;-79
2021/07/18 07:40:34;;;;;;;2.67;1.30;;;24.60;99.90;;;;;;5026227;28;20056;-78
2021/07/18 07:43:01;;;;;;;2.95;1.02;;;24.60;99.90;;;;;;5041536;28;20519;-78
2021/07/18 07:45:27;;;;;;;2.78;1.40;;;24.70;99.60;;;;;;5021953;28;20045;-78
2021/07/18 07:47:53;;;;;;;2.33;1.10;;;24.80;99.40;;;;;;5045612;28;20468;-78
2021/07/18 07:50:20;;;;;;;2.90;1.20;;;24.90;99.10;;;;;;5044797;28;20463;-78
2021/07/18 07:52:47;;;;;;;2.53;1.33;;;25.00;98.80;;;;;;5043964;28;20037;-78
2021/07/18 07:55:13;;;;;;;2.28;1.25;;;25.10;98.60;;;;;;5042859;28;20036;-78
2021/07/18 07:57:40;;;;;;;3.22;1.52;;;25.10;98.40;;;;;;5045022;28;20037;-78
2021/07/18 08:00:12;;;;;;;4.00;1.45;;;25.30;98.00;;;;;;5045010;28;20414;-78
2021/07/18 08:02:42;;;;;;;3.05;1.20;;;25.30;97.60;;;;;;5042665;28;20044;-78
2021/07/18 08:05:10;;;;;;;3.60;1.25;;;25.40;97.20;;;;;;5041946;28;20052;-78
2021/07/18 08:07:37;;;;;;;2.90;1.13;;;25.40;97.10;;;;;;5044979;28;20036;-78
2021/07/18 08:10:07;;;;;;;2.10;1.40;;;25.50;96.90;;;;;;5045354;28;20045;-78
2021/07/18 08:12:33;;;;;;;4.55;1.17;;;25.60;96.60;;;;;;5043519;28;20033;-78
2021/07/18 08:15:00;;;;;;;2.75;1.70;;;25.80;96.30;;;;;;5042036;28;20045;-77
2021/07/18 08:17:26;;;;;;;3.60;1.23;;;25.90;95.60;;;;;;5025176;28;20071;-78
2021/07/18 08:19:53;;;;;;;2.50;1.60;;;25.90;95.40;;;;;;5042170;28;20391;-77
2021/07/18 08:22:19;;;;;;;3.50;1.20;;;26.00;94.80;;;;;;5043250;28;20488;-79
2021/07/18 08:24:46;;;;;;;3.63;1.10;;;26.00;94.80;;;;;;5042750;28;20060;-77
2021/07/18 08:27:12;;;;;;;3.08;1.20;;;26.10;94.80;;;;;;5048256;28;20484;-77
2021/07/18 08:29:38;;;;;;;2.97;1.23;;;26.30;94.40;;;;;;5046738;28;20044;-78
2021/07/18 08:32:06;;;;;;;3.25;1.55;;;26.40;93.90;;;;;;5043406;28;20056;-77
2021/07/18 08:34:32;;;;;;;4.13;1.10;;;26.50;93.60;;;;;;5009333;28;20053;-77
2021/07/18 08:36:59;;;;;;;2.55;0.80;;;26.50;93.40;;;;;;5042110;28;20060;-77
2021/07/18 08:39:25;;;;;;;4.20;1.17;;;26.70;93.40;;;;;;5044581;28;20028;-77
2021/07/18 08:41:54;;;;;;;3.60;0.90;;;26.80;92.90;;;;;;5039638;28;20392;-77
2021/07/18 08:44:22;;;;;;;1.92;0.80;;;26.90;92.70;;;;;;5042863;28;20044;-77
2021/07/18 08:46:49;;;;;;;4.13;2.28;;;27.10;92.00;;;;;;5044107;28;20045;-77
2021/07/18 08:49:16;;;;;;;3.70;1.30;;;27.20;91.70;;;;;;5025944;28;20049;-77
2021/07/18 08:51:42;;;;;;;3.63;1.90;;;27.20;91.50;;;;;;5020389;28;20059;-78
2021/07/18 08:54:09;;;;;;;3.22;1.20;;;27.30;90.90;;;;;;5044491;28;20514;-77
2021/07/18 08:56:36;;;;;;;3.78;0.95;;;27.40;90.60;;;;;;5040874;28;20040;-77
2021/07/18 08:59:06;;;;;;;3.85;0.80;;;27.40;89.30;;;;;;5043785;28;20037;-77
2021/07/18 09:01:43;;;;;;;4.75;1.35;;;27.40;89.40;;;;;;5026568;28;20472;-77
2021/07/18 09:04:27;;;;;;;3.97;0.88;;;27.50;89.70;;;;;;5041026;28;20029;-77
2021/07/18 09:06:54;;;;;;;3.50;0.88;;;27.70;89.00;;;;;;4995854;28;20523;-77
2021/07/18 09:09:23;;;;;;;3.00;0.90;;;27.80;88.40;;;;;;5013369;28;20049;-77
2021/07/18 09:11:58;;;;;;;2.90;0.82;;;27.90;88.00;;;;;;5045975;28;20041;-77
2021/07/18 09:14:33;;;;;;;3.30;0.90;;;28.00;87.40;;;;;;5024120;28;20044;-77
2021/07/18 09:17:00;;;;;;;3.17;1.20;;;28.10;86.90;;;;;;5038807;28;20040;-77
2021/07/18 09:19:32;;;;;;;4.60;0.90;;;28.10;85.30;;;;;;5042468;28;20047;-76
2021/07/18 09:22:22;;;;;;;2.53;0.80;;;28.00;84.90;;;;;;5040272;28;20033;-76
2021/07/18 09:24:59;;;;;;;2.75;0.90;;;28.10;85.00;;;;;;5038871;28;20037;-77
2021/07/18 09:27:34;;;;;;;2.97;0.68;;;28.20;84.80;;;;;;5039882;28;20028;-77
2021/07/18 09:30:11;;;;;;;4.07;1.15;;;28.30;85.00;;;;;;5042331;28;20041;-78
2021/07/18 09:32:41;;;;;;;1.85;0.77;;;28.50;84.10;;;;;;5045313;28;20108;-77
2021/07/18 09:35:10;;;;;;;2.03;0.68;;;28.50;83.20;;;;;;5027502;28;20514;-77
2021/07/18 09:37:45;;;;;;;2.15;0.90;;;28.60;83.10;;;;;;5046507;28;20025;-81
2021/07/18 09:40:20;;;;;;;2.92;0.80;;;28.70;82.40;;;;;;5045004;28;20041;-81
2021/07/18 09:42:56;;;;;;;3.47;0.70;;;28.70;81.50;;;;;;5028113;28;20492;-82
2021/07/18 09:45:24;;;;;;;3.45;0.88;;;28.80;81.70;;;;;;5066871;28;20041;-82
2021/07/18 09:47:57;;;;;;;2.58;0.82;;;28.90;81.50;;;;;;5027261;28;20064;-82
2021/07/18 09:50:31;;;;;;;4.95;1.20;;;29.00;80.10;;;;;;5045562;28;20040;-81
2021/07/18 09:53:14;;;;;;;3.17;1.60;;;29.00;78.60;;;;;;5044113;28;20055;-81
2021/07/18 09:56:11;;;;;;;1.13;0.73;;;29.00;79.00;;;;;;5046078;28;20033;-77
2021/07/18 09:58:50;;;;;;;1.63;0.60;;;29.10;78.90;;;;;;5048018;28;20035;-78
2021/07/18 10:01:19;;;;;;;3.50;0.70;;;29.20;78.90;;;;;;5045663;28;20040;-80
2021/07/18 10:03:50;;;;;;;2.42;0.68;;;29.30;78.80;;;;;;5027914;28;20404;-78
2021/07/18 10:06:21;;;;;;;2.58;0.60;;;29.40;78.10;;;;;;5047052;28;20076;-78
2021/07/18 10:08:49;;;;;;;1.15;0.60;;;29.50;77.30;;;;;;5047274;28;20028;-79
2021/07/18 10:11:24;;;;;;;1.30;0.50;;;29.60;77.50;;;;;;5045075;28;20041;-78
2021/07/18 10:13:53;;;;;;;2.97;0.57;;;29.70;77.10;;;;;;5046346;28;20044;-78
2021/07/18 10:16:21;;;;;;;1.42;0.82;;;29.90;76.40;;;;;;5046591;28;20032;-78
2021/07/18 10:18:50;;;;;;;1.33;0.50;;;30.00;75.50;;;;;;5047023;28;20033;-78
2021/07/18 10:21:22;;;;;;;1.88;0.70;;;30.00;75.00;;;;;;5044945;28;20502;-78
2021/07/18 10:23:51;;;;;;;1.92;0.80;;;30.00;74.30;;;;;;5044455;28;20033;-78
2021/07/18 10:26:27;;;;;;;3.03;0.50;;;30.00;73.00;;;;;;5018690;28;20064;-78
2021/07/18 10:28:58;;;;;;;1.58;0.80;;;29.90;73.20;;;;;;5046049;28;20048;-78
2021/07/18 10:31:35;;;;;;;2.88;0.90;;;30.00;73.60;;;;;;5045078;28;20033;-78
2021/07/18 10:34:05;;;;;;;2.45;0.60;;;30.00;72.90;;;;;;5045688;28;20037;-78
2021/07/18 10:36:33;;;;;;;2.20;0.60;;;30.10;73.00;;;;;;5028344;28;20601;-79
2021/07/18 10:38:59;;;;;;;3.22;0.63;;;30.20;73.40;;;;;;5046510;28;20033;-78
2021/07/18 10:41:45;;;;;;;1.25;0.60;;;30.40;73.40;;;;;;5042141;28;20516;-78
2021/07/18 10:44:16;;;;;;;1.23;0.50;;;30.70;72.80;;;;;;5043260;28;20534;-78
2021/07/18 10:46:42;;;;;;;3.05;0.73;;;30.90;71.60;;;;;;5044011;28;20403;-78
2021/07/18 10:49:14;;;;;;;2.05;0.60;;;31.00;70.70;;;;;;5045297;28;20044;-79
2021/07/18 10:51:51;;;;;;;1.25;0.50;;;31.20;69.90;;;;;;5045095;28;20376;-78
2021/07/18 10:54:19;;;;;;;1.98;0.70;;;31.30;68.60;;;;;;5042752;28;20037;-78
2021/07/18 10:56:51;;;;;;;1.75;0.63;;;31.50;68.40;;;;;;5043711;28;20044;-78
2021/07/18 10:59:37;;;;;;;2.35;0.60;;;31.70;67.40;;;;;;5044583;28;20044;-78
2021/07/18 11:02:11;;;;;;;1.38;0.60;;;31.90;66.30;;;;;;5044513;28;20040;-79
2021/07/18 11:04:49;;;;;;;2.05;0.70;;;32.00;65.70;;;;;;5044071;28;20041;-79
2021/07/18 11:07:22;;;;;;;1.48;0.70;;;32.20;65.40;;;;;;5042417;28;20064;-81
2021/07/18 11:10:08;;;;;;;1.63;1.00;;;32.50;65.10;;;;;;5043981;28;20644;-81
2021/07/18 11:12:37;;;;;;;2.42;1.13;;;32.80;63.40;;;;;;5042904;28;20036;-81
2021/07/18 11:15:15;;;;;;;1.92;0.90;;;33.00;63.00;;;;;;5043770;28;20036;-81
2021/07/18 11:18:07;;;;;;;2.20;0.68;;;33.10;62.90;;;;;;5028101;28;20052;-83
2021/07/18 11:20:52;;;;;;;2.42;0.80;;;33.30;61.90;;;;;;5027588;28;20044;-83
2021/07/18 11:23:31;;;;;;;1.83;0.70;;;33.50;61.30;;;;;;5044703;28;20029;-82
2021/07/18 11:26:04;;;;;;;2.28;0.70;;;33.70;60.20;;;;;;5044505;28;20048;-82
2021/07/18 11:28:32;;;;;;;1.73;0.75;;;33.80;59.60;;;;;;5046226;28;21373;-82
2021/07/18 11:31:11;;;;;;;2.10;0.70;;;33.80;58.70;;;;;;5043090;28;20041;-82
2021/07/18 11:33:40;;;;;;;1.50;0.63;;;34.00;57.50;;;;;;5025503;28;20443;-82
2021/07/18 11:36:08;;;;;;;1.50;0.70;;;34.10;57.10;;;;;;5022305;28;20053;-81
2021/07/18 11:38:34;;;;;;;1.13;0.63;;;34.30;57.10;;;;;;5043981;28;20037;-81
2021/07/18 11:41:14;;;;;;;1.67;0.70;;;34.50;56.90;;;;;;5045398;28;20032;-81
2021/07/18 11:43:45;;;;;;;0.90;0.52;;;34.70;56.70;;;;;;5027361;28;20071;-81
2021/07/18 11:46:12;;;;;;;1.60;0.65;;;35.10;55.90;;;;;;5043197;28;20044;-82
2021/07/18 11:48:41;;;;;;;1.13;0.60;;;35.20;54.90;;;;;;5043618;28;20049;-86
2021/07/18 11:51:21;;;;;;;1.20;0.70;;;35.20;54.00;;;;;;5031330;28;20121;-80
2021/07/18 11:53:53;;;;;;;1.17;0.60;;;35.40;53.70;;;;;;5042564;28;20033;-80
2021/07/18 11:56:24;;;;;;;1.15;0.80;;;35.50;52.80;;;;;;5043480;28;20050;-81
2021/07/18 11:59:02;;;;;;;2.60;0.80;;;35.70;52.40;;;;;;5043974;28;20049;-82
2021/07/18 12:01:32;;;;;;;1.40;0.90;;;35.90;51.50;;;;;;5026371;28;20041;-87
2021/07/18 12:03:58;;;;;;;2.75;0.80;;;35.90;51.00;;;;;;5026568;28;20032;-85
2021/07/18 12:06:27;;;;;;;2.30;0.88;;;35.90;50.70;;;;;;5042724;28;20033;-84
2021/07/18 12:08:55;;;;;;;2.22;0.70;;;36.10;50.90;;;;;;5046451;28;20055;-84
2021/07/18 12:11:29;;;;;;;2.72;0.60;;;36.30;50.20;;;;;;5040718;28;20471;-83
2021/07/18 12:13:58;;;;;;;2.58;1.60;;;36.30;49.10;;;;;;5042575;28;20036;-83
2021/07/18 12:16:25;;;;;;;1.73;1.23;;;36.40;49.50;;;;;;5043308;28;20037;-84
2021/07/18 12:18:54;;;;;;;1.63;0.70;;;36.70;48.80;;;;;;5043535;28;20048;-84
2021/07/18 12:21:23;;;;;;;2.88;0.70;;;36.90;48.80;;;;;;5025201;28;20033;-82
2021/07/18 12:24:11;;;;;;;2.95;0.60;;;37.10;48.80;;;;;;5042636;28;20140;-82
2021/07/18 12:26:40;;;;;;;1.67;0.60;;;37.40;47.90;;;;;;5045037;28;20052;-82
2021/07/18 12:29:09;;;;;;;1.92;0.95;;;37.40;47.70;;;;;;5043897;28;20033;-80
2021/07/18 12:31:38;;;;;;;1.38;0.60;;;37.60;46.90;;;;;;5043418;28;20029;-82
2021/07/18 12:34:07;;;;;;;5.15;1.00;;;37.80;46.30;;;;;;5042463;28;20041;-82
2021/07/18 12:36:54;;;;;;;2.50;0.90;;;37.70;46.10;;;;;;5042758;28;20043;-82
2021/07/18 12:39:23;;;;;;;2.45;1.30;;;37.40;46.60;;;;;;5038343;28;20057;-83
2021/07/18 12:41:50;;;;;;;2.38;2.03;;;36.90;47.30;;;;;;5042211;28;20048;-84
2021/07/18 12:44:21;;;;;;;1.58;1.10;;;36.90;47.70;;;;;;5043576;28;20044;-83
2021/07/18 12:46:48;;;;;;;3.10;1.20;;;37.20;46.40;;;;;;5040892;28;20041;-83
2021/07/18 12:49:16;;;;;;;1.40;0.70;;;37.50;46.00;;;;;;5008445;28;20050;-85
2021/07/18 12:51:43;;;;;;;4.22;0.90;;;37.80;45.60;;;;;;5043473;28;20049;-86
2021/07/18 12:54:10;;;;;;;1.55;0.80;;;38.20;44.80;;;;;;5025810;28;20041;-85